Time;durP1;ratioP1;P1;durP2;ratioP2;P2;SDS_P1;SDS_P2;PMS_P1;PMS_P2;Temp;Humidity;BMP_temperature;BMP_pressure;BME280_temperature;BME280_humidity;BME280_pressure;Samples;Min_cycle;Max_cycle;Signal;HPM_P1;HPM_P2
2022/12/23 00:00:35;;;;;;;2.55;1.40;;;7.30;99.90;;;;;;5051872;28;20514;-85
2022/12/23 00:03:01;;;;;;;2.35;1.33;;;7.30;99.90;;;;;;5058384;28;20033;-84
2022/12/23 00:05:27;;;;;;;2.40;1.35;;;7.30;99.90;;;;;;5035563;28;20033;-85
2022/12/23 00:07:53;;;;;;;35.72;3.33;;;7.30;99.90;;;;;;5041301;28;20025;-85
2022/12/23 00:10:19;;;;;;;14.55;2.40;;;7.30;99.90;;;;;;5035300;28;20079;-85
2022/12/23 00:15:28;;;;;;;17.48;2.95;;;7.30;99.90;;;;;;5061779;28;20115;-85
2022/12/23 00:17:54;;;;;;;27.98;2.80;;;7.30;99.90;;;;;;5034531;28;20124;-85
2022/12/23 00:20:20;;;;;;;37.60;3.50;;;7.30;99.90;;;;;;5051210;28;20025;-85
2022/12/23 00:23:03;;;;;;;7.25;2.05;;;7.30;99.90;;;;;;5051257;28;20384;-85
2022/12/23 00:25:39;;;;;;;4.97;1.95;;;7.20;99.90;;;;;;5051352;28;20025;-85
2022/12/23 00:28:17;;;;;;;16.75;2.97;;;7.30;99.90;;;;;;5047787;28;20499;-85
2022/12/23 00:30:48;;;;;;;93.20;6.03;;;7.30;99.90;;;;;;5040713;28;20515;-85
2022/12/23 00:33:15;;;;;;;77.68;5.95;;;7.20;99.90;;;;;;5051299;28;20025;-85
2022/12/23 00:35:42;;;;;;;41.35;4.38;;;7.20;99.90;;;;;;5034123;28;20104;-85
2022/12/23 00:38:08;;;;;;;55.00;5.05;;;7.30;99.90;;;;;;5052347;28;20032;-85
2022/12/23 00:43:20;;;;;;;78.53;6.50;;;7.30;99.90;;;;;;5052560;28;20052;-85
2022/12/23 00:45:46;;;;;;;27.75;6.47;;;7.20;99.90;;;;;;5051171;28;20068;-85
2022/12/23 00:50:57;;;;;;;22.33;3.63;;;7.30;99.90;;;;;;5051275;28;20393;-85
2022/12/23 00:53:22;;;;;;;166.90;11.38;;;7.20;99.90;;;;;;5051345;28;20032;-85
2022/12/23 00:55:49;;;;;;;85.30;9.20;;;7.30;99.90;;;;;;5050833;28;20040;-85
2022/12/23 00:58:16;;;;;;;41.20;5.82;;;7.20;99.90;;;;;;5050227;28;20037;-85
2022/12/23 01:06:12;;;;;;;14.95;4.15;;;7.30;99.90;;;;;;5050920;28;20025;-86
2022/12/23 01:08:39;;;;;;;11.48;3.80;;;7.30;99.90;;;;;;5051537;28;20043;-85
2022/12/23 01:11:06;;;;;;;9.82;4.57;;;7.30;99.90;;;;;;5051897;28;20024;-85
2022/12/23 01:13:33;;;;;;;20.25;5.03;;;7.30;99.90;;;;;;5067199;28;20029;-85
2022/12/23 01:16:11;;;;;;;51.50;6.43;;;7.40;99.90;;;;;;5050659;28;20033;-85
2022/12/23 01:18:37;;;;;;;24.08;7.78;;;7.40;99.90;;;;;;5050513;28;20545;-85
2022/12/23 01:21:09;;;;;;;19.23;6.57;;;7.40;99.90;;;;;;5034323;28;20033;-85
2022/12/23 01:23:35;;;;;;;20.85;7.38;;;7.40;99.90;;;;;;5067457;28;20029;-86
2022/12/23 01:26:04;;;;;;;52.75;9.80;;;7.50;99.90;;;;;;5045478;28;20480;-86
2022/12/23 01:28:31;;;;;;;37.10;8.75;;;7.60;99.90;;;;;;5050486;28;20060;-86
2022/12/23 01:31:52;;;;;;;115.47;10.95;;;7.60;99.90;;;;;;5050718;28;20044;-86
2022/12/23 01:34:18;;;;;;;90.07;10.90;;;7.60;99.90;;;;;;5048209;28;20040;-85
2022/12/23 01:36:43;;;;;;;47.60;9.25;;;7.70;99.90;;;;;;5034265;28;20029;-85
2022/12/23 01:39:09;;;;;;;106.50;9.82;;;7.70;99.90;;;;;;5034310;28;20032;-86
2022/12/23 01:44:49;;;;;;;47.03;9.82;;;7.80;99.90;;;;;;5054185;28;20660;-85
2022/12/23 01:47:35;;;;;;;397.23;29.38;;;7.90;99.90;;;;;;5050517;28;20035;-86
2022/12/23 01:50:07;;;;;;;270.90;26.88;;;7.90;99.90;;;;;;5047044;28;20037;-86
2022/12/23 01:52:38;;;;;;;21.98;10.20;;;8.00;99.90;;;;;;5066817;28;20111;-85
2022/12/23 01:55:04;;;;;;;12.68;7.93;;;8.10;99.90;;;;;;5033523;28;20029;-86
2022/12/23 01:57:30;;;;;;;7.28;5.53;;;8.10;99.90;;;;;;5040853;28;20059;-85
2022/12/23 02:05:28;;;;;;;10.18;6.60;;;8.20;99.90;;;;;;5055009;28;20551;-86
2022/12/23 02:11:03;;;;;;;7.25;3.70;;;8.30;99.90;;;;;;5054519;28;20112;-86
2022/12/23 02:16:45;;;;;;;5.40;4.20;;;8.30;99.90;;;;;;5059248;28;20029;-85
2022/12/23 02:19:16;;;;;;;5.53;4.10;;;8.40;99.90;;;;;;5053733;28;20116;-86
2022/12/23 02:21:51;;;;;;;5.38;3.35;;;8.40;99.90;;;;;;5070424;28;20051;-85
2022/12/23 02:24:42;;;;;;;6.95;3.63;;;8.40;99.90;;;;;;5053419;28;20086;-85
2022/12/23 02:27:22;;;;;;;5.15;3.35;;;8.40;99.90;;;;;;5041736;28;20068;-86
2022/12/23 02:30:00;;;;;;;7.90;3.35;;;8.50;99.90;;;;;;5053756;28;20039;-86
2022/12/23 02:32:45;;;;;;;4.25;3.30;;;8.50;99.90;;;;;;5045036;28;20037;-85
2022/12/23 02:35:24;;;;;;;7.25;3.47;;;8.50;99.90;;;;;;5068964;28;20032;-86
2022/12/23 02:38:13;;;;;;;12.00;4.78;;;8.50;99.90;;;;;;5053607;28;20032;-85
2022/12/23 02:41:13;;;;;;;5.85;4.05;;;8.50;99.90;;;;;;5044277;28;20127;-86
2022/12/23 02:43:55;;;;;;;8.02;3.85;;;8.50;99.90;;;;;;5033843;28;20039;-86
2022/12/23 02:46:53;;;;;;;5.30;3.50;;;8.50;99.90;;;;;;5051939;28;20116;-85
2022/12/23 02:49:24;;;;;;;7.47;3.83;;;8.60;99.90;;;;;;5037670;28;20041;-86
2022/12/23 02:51:53;;;;;;;;;;;8.60;99.90;;;;;;5033842;28;20049;-86
2022/12/23 02:54:27;;;;;;;7.68;3.58;;;8.60;99.90;;;;;;5052242;28;19912;-85
2022/12/23 02:56:54;;;;;;;4.55;3.50;;;8.60;99.90;;;;;;5052651;28;20036;-86
2022/12/23 02:59:25;;;;;;;7.55;4.18;;;8.60;99.90;;;;;;5056514;28;20029;-85
2022/12/23 03:01:52;;;;;;;9.02;4.75;;;8.60;99.90;;;;;;5036132;28;20366;-86
2022/12/23 03:04:18;;;;;;;6.93;4.05;;;8.60;99.90;;;;;;5055206;28;20043;-86
2022/12/23 03:06:48;;;;;;;6.43;4.03;;;8.60;99.90;;;;;;5036317;28;20108;-86
2022/12/23 03:09:21;;;;;;;6.28;3.85;;;8.60;99.90;;;;;;5036326;28;20561;-86
2022/12/23 03:12:09;;;;;;;5.43;3.70;;;8.60;99.90;;;;;;5053121;28;20691;-86
2022/12/23 03:15:12;;;;;;;6.93;3.63;;;8.60;99.90;;;;;;5052339;28;20565;-85
2022/12/23 03:18:12;;;;;;;5.47;3.55;;;8.60;99.90;;;;;;5026127;28;20163;-86
2022/12/23 03:20:50;;;;;;;7.20;4.13;;;8.60;99.90;;;;;;5051631;28;20021;-86
2022/12/23 03:23:25;;;;;;;7.45;3.92;;;8.60;99.90;;;;;;5053060;28;20082;-86
2022/12/23 03:25:56;;;;;;;6.28;4.20;;;8.70;99.90;;;;;;5048310;28;20036;-86
2022/12/23 03:28:33;;;;;;;6.07;3.72;;;8.70;99.90;;;;;;5057231;28;20495;-86
2022/12/23 03:31:02;;;;;;;5.25;3.90;;;8.70;99.90;;;;;;5035815;28;20490;-86
2022/12/23 03:33:38;;;;;;;6.93;4.65;;;8.70;99.90;;;;;;5055168;28;20029;-85
2022/12/23 03:36:50;;;;;;;10.07;4.53;;;8.70;99.90;;;;;;5035901;28;20423;-86
2022/12/23 03:39:19;;;;;;;7.50;4.78;;;8.70;99.90;;;;;;4995071;28;20029;-86
2022/12/23 03:41:51;;;;;;;7.75;4.07;;;8.70;99.90;;;;;;5045818;28;20060;-86
2022/12/23 03:44:46;;;;;;;7.70;4.40;;;8.70;99.90;;;;;;5052108;28;20043;-85
2022/12/23 03:47:17;;;;;;;5.05;3.60;;;8.60;99.90;;;;;;5052043;28;20107;-86
2022/12/23 03:50:01;;;;;;;5.43;3.58;;;8.70;99.90;;;;;;5056519;28;20108;-86
2022/12/23 03:52:34;;;;;;;5.70;4.03;;;8.70;99.90;;;;;;5047298;28;20445;-86
2022/12/23 03:55:04;;;;;;;6.43;4.15;;;8.70;99.90;;;;;;5051817;28;20075;-86
2022/12/23 03:57:42;;;;;;;5.90;4.03;;;8.70;99.90;;;;;;5053900;28;20035;-86
2022/12/23 04:00:09;;;;;;;5.18;3.63;;;8.70;99.90;;;;;;5051954;28;20027;-86
2022/12/23 04:02:46;;;;;;;4.07;2.92;;;8.70;99.90;;;;;;5046302;28;20025;-85
2022/12/23 04:05:23;;;;;;;6.05;4.70;;;8.70;99.90;;;;;;5068054;28;20032;-86
2022/12/23 04:08:17;;;;;;;9.77;5.25;;;8.60;99.90;;;;;;5052858;28;20017;-85
2022/12/23 04:10:43;;;;;;;8.02;4.90;;;8.60;99.90;;;;;;5051549;28;20079;-85
2022/12/23 04:13:09;;;;;;;4.80;3.65;;;8.60;99.90;;;;;;5051716;28;20427;-86
2022/12/23 04:15:40;;;;;;;7.47;3.55;;;8.60;99.90;;;;;;5052990;28;20032;-85
2022/12/23 04:18:06;;;;;;;4.15;3.17;;;8.60;99.90;;;;;;5051358;28;20051;-86
2022/12/23 04:20:32;;;;;;;3.90;3.30;;;8.60;99.90;;;;;;5051644;28;20052;-86
2022/12/23 04:22:58;;;;;;;3.33;3.00;;;8.60;99.90;;;;;;5051060;28;20025;-86
2022/12/23 04:25:24;;;;;;;8.18;3.08;;;8.60;99.90;;;;;;5051364;28;20025;-86
2022/12/23 04:27:49;;;;;;;8.05;3.08;;;8.60;99.90;;;;;;5067680;28;20104;-86
2022/12/23 04:30:15;;;;;;;3.65;3.13;;;8.50;99.90;;;;;;5034445;28;20059;-86
2022/12/23 04:32:41;;;;;;;6.38;3.38;;;8.60;99.90;;;;;;5050714;28;20044;-85
2022/12/23 04:35:07;;;;;;;7.30;3.63;;;8.60;99.90;;;;;;5050706;28;20108;-86
2022/12/23 04:37:33;;;;;;;4.68;3.22;;;8.60;99.90;;;;;;5050635;28;20029;-85
2022/12/23 04:39:59;;;;;;;3.53;2.75;;;8.50;99.90;;;;;;5050666;28;20047;-86
2022/12/23 04:42:25;;;;;;;4.45;2.70;;;8.50;99.90;;;;;;5034231;28;20383;-86
2022/12/23 04:44:50;;;;;;;3.70;3.03;;;8.50;99.90;;;;;;5047732;28;20030;-85
2022/12/23 04:47:16;;;;;;;7.68;2.80;;;8.50;99.90;;;;;;5037718;28;20068;-86
2022/12/23 04:49:53;;;;;;;3.92;2.58;;;8.50;99.90;;;;;;5034012;28;20381;-86
2022/12/23 04:52:19;;;;;;;3.97;2.80;;;8.40;99.90;;;;;;5067529;28;20037;-86
2022/12/23 04:54:44;;;;;;;5.93;3.13;;;8.50;99.90;;;;;;5031126;28;20377;-86
2022/12/23 04:57:10;;;;;;;3.65;2.40;;;8.40;99.90;;;;;;5047754;28;20404;-85
2022/12/23 04:59:36;;;;;;;4.32;2.40;;;8.40;99.90;;;;;;5050912;28;20029;-86
2022/12/23 05:02:01;;;;;;;3.97;2.38;;;8.50;99.90;;;;;;5067358;28;20025;-84
2022/12/23 05:04:27;;;;;;;3.35;2.17;;;8.40;99.90;;;;;;5034324;28;20021;-86
2022/12/23 05:06:53;;;;;;;3.63;1.90;;;8.50;99.90;;;;;;5067260;28;20025;-85
2022/12/23 05:09:18;;;;;;;2.92;2.20;;;8.40;99.90;;;;;;5034216;28;20499;-86
2022/12/23 05:11:44;;;;;;;2.95;2.05;;;8.40;99.90;;;;;;5050744;28;20025;-85
2022/12/23 05:14:10;;;;;;;2.95;1.98;;;8.40;99.90;;;;;;5034291;28;20028;-86
2022/12/23 05:16:36;;;;;;;2.38;1.83;;;8.40;99.90;;;;;;5050097;28;20170;-85
2022/12/23 05:19:02;;;;;;;2.90;2.42;;;8.40;99.90;;;;;;5050594;28;20067;-86
2022/12/23 05:21:27;;;;;;;3.25;1.95;;;8.40;99.90;;;;;;5055455;28;20029;-86
2022/12/23 05:23:53;;;;;;;3.33;1.70;;;8.40;99.90;;;;;;5034538;28;20063;-85
2022/12/23 05:26:19;;;;;;;1.88;1.60;;;8.30;99.90;;;;;;5055633;28;20025;-86
2022/12/23 05:28:45;;;;;;;2.03;1.70;;;8.40;99.90;;;;;;5050826;28;20048;-86
2022/12/23 05:31:12;;;;;;;2.97;1.73;;;8.30;99.90;;;;;;5055583;28;20064;-86
2022/12/23 05:33:38;;;;;;;3.85;2.03;;;8.30;99.90;;;;;;5050498;28;20032;-86
2022/12/23 05:36:04;;;;;;;4.95;1.90;;;8.30;99.90;;;;;;5050186;28;20035;-86
2022/12/23 05:38:30;;;;;;;3.88;2.00;;;8.30;99.90;;;;;;5034246;28;20028;-85
2022/12/23 05:40:56;;;;;;;7.18;2.65;;;8.30;99.90;;;;;;5053924;28;20555;-86
2022/12/23 05:43:22;;;;;;;3.65;2.20;;;8.30;99.90;;;;;;5038030;28;20082;-85
2022/12/23 05:45:49;;;;;;;3.45;2.50;;;8.30;99.90;;;;;;5054675;28;20051;-86
2022/12/23 05:48:14;;;;;;;3.60;2.70;;;8.30;99.90;;;;;;5054217;28;20051;-86
2022/12/23 05:50:40;;;;;;;8.52;2.80;;;8.30;99.90;;;;;;5054419;28;20029;-86
2022/12/23 05:53:07;;;;;;;4.25;2.70;;;8.30;99.90;;;;;;5037772;28;20392;-86
2022/12/23 05:55:34;;;;;;;6.80;2.58;;;8.30;99.90;;;;;;5043188;28;20028;-86
2022/12/23 05:57:59;;;;;;;5.03;2.90;;;8.30;99.90;;;;;;5054392;28;20138;-85
2022/12/23 06:00:25;;;;;;;5.35;3.53;;;8.20;99.90;;;;;;5043253;28;22857;-85
2022/12/23 06:02:51;;;;;;;6.75;3.60;;;8.30;99.90;;;;;;5034644;28;20424;-86
2022/12/23 06:05:17;;;;;;;6.20;3.80;;;8.20;99.90;;;;;;5051662;28;20032;-86
2022/12/23 06:07:42;;;;;;;4.38;2.60;;;8.20;99.90;;;;;;5037391;28;20025;-86
2022/12/23 06:10:09;;;;;;;5.43;2.47;;;8.30;99.90;;;;;;5059561;28;20021;-86
2022/12/23 06:12:35;;;;;;;3.70;2.53;;;8.20;99.90;;;;;;5053884;28;20033;-86
2022/12/23 06:15:01;;;;;;;3.33;2.17;;;8.30;99.90;;;;;;5058984;28;20033;-85
2022/12/23 06:17:26;;;;;;;5.20;2.47;;;8.20;99.90;;;;;;5037088;28;20464;-86
2022/12/23 06:19:52;;;;;;;3.72;2.40;;;8.20;99.90;;;;;;5053546;28;20021;-86
2022/12/23 06:22:20;;;;;;;2.47;2.08;;;8.30;99.90;;;;;;5053624;28;20032;-86
2022/12/23 06:24:47;;;;;;;6.20;2.00;;;8.20;99.90;;;;;;5069986;28;20033;-86
2022/12/23 06:27:13;;;;;;;2.83;2.22;;;8.20;99.90;;;;;;5036202;28;20056;-86
2022/12/23 06:29:39;;;;;;;4.78;1.95;;;8.30;99.90;;;;;;5053390;28;20028;-86
2022/12/23 06:32:04;;;;;;;1.92;1.30;;;8.20;99.90;;;;;;5053764;28;20039;-86
2022/12/23 06:34:30;;;;;;;2.58;2.20;;;8.20;99.90;;;;;;5036227;28;20029;-85
2022/12/23 06:36:56;;;;;;;1.85;1.60;;;8.30;99.90;;;;;;5036783;28;20040;-86
2022/12/23 06:39:22;;;;;;;4.13;2.40;;;8.30;99.90;;;;;;5057652;28;20827;-86
2022/12/23 06:41:47;;;;;;;3.33;2.05;;;8.30;99.90;;;;;;5054419;28;20108;-86
2022/12/23 06:44:13;;;;;;;4.10;2.40;;;8.30;99.90;;;;;;5053022;28;20032;-86
2022/12/23 06:46:39;;;;;;;4.93;2.22;;;8.30;99.90;;;;;;5052936;28;20021;-86
2022/12/23 06:49:04;;;;;;;5.20;2.90;;;8.30;99.90;;;;;;5069113;28;20037;-86
2022/12/23 06:51:30;;;;;;;7.20;3.05;;;8.30;99.90;;;;;;5052633;28;20037;-86
2022/12/23 06:53:58;;;;;;;4.00;3.60;;;8.30;99.90;;;;;;5052517;28;20029;-86
2022/12/23 06:56:24;;;;;;;7.63;4.18;;;8.30;99.90;;;;;;5052508;28;20033;-86
2022/12/23 06:58:51;;;;;;;5.45;3.70;;;8.40;99.90;;;;;;5052589;28;20378;-85
2022/12/23 07:01:17;;;;;;;7.47;4.35;;;8.30;99.90;;;;;;5035520;28;20044;-86
2022/12/23 07:03:43;;;;;;;7.03;4.63;;;8.30;99.90;;;;;;5052276;28;20025;-86
2022/12/23 07:06:09;;;;;;;6.78;4.50;;;8.30;99.90;;;;;;5036040;28;20079;-86
2022/12/23 07:08:47;;;;;;;6.32;4.85;;;8.30;99.90;;;;;;5056809;28;20024;-86
2022/12/23 07:11:13;;;;;;;12.13;6.22;;;8.30;99.90;;;;;;5052990;28;20032;-86
2022/12/23 07:13:38;;;;;;;12.95;6.20;;;8.30;99.90;;;;;;5068995;28;20464;-86
2022/12/23 07:16:06;;;;;;;10.55;6.20;;;8.30;99.90;;;;;;5052357;28;20064;-86
2022/12/23 07:18:32;;;;;;;29.48;14.60;;;8.30;99.90;;;;;;5051766;28;20487;-86
2022/12/23 07:21:02;;;;;;;18.50;12.15;;;8.30;99.90;;;;;;5064808;28;20072;-87
2022/12/23 07:23:28;;;;;;;14.70;8.30;;;8.30;99.90;;;;;;5046793;28;20029;-88
2022/12/23 07:26:15;;;;;;;13.63;8.30;;;8.30;99.90;;;;;;5044787;28;20085;-87
2022/12/23 07:28:45;;;;;;;14.43;7.35;;;8.30;99.90;;;;;;5032949;28;20025;-87
2022/12/23 07:31:11;;;;;;;12.88;5.72;;;8.30;99.90;;;;;;5063440;28;20106;-87
2022/12/23 07:33:36;;;;;;;9.43;6.88;;;8.40;99.90;;;;;;5045656;28;20120;-87
2022/12/23 07:36:02;;;;;;;10.68;6.97;;;8.40;99.90;;;;;;5047893;28;20021;-87
2022/12/23 07:38:28;;;;;;;13.43;7.28;;;8.40;99.90;;;;;;5050678;28;20040;-88
2022/12/23 07:40:54;;;;;;;10.80;7.15;;;8.40;99.90;;;;;;5046979;28;20645;-87
2022/12/23 07:43:20;;;;;;;10.32;5.93;;;8.30;99.90;;;;;;5056904;28;20028;-87
2022/12/23 07:45:45;;;;;;;12.25;7.45;;;8.40;99.90;;;;;;5069189;28;20844;-88
2022/12/23 07:48:11;;;;;;;12.32;7.53;;;8.40;99.90;;;;;;5029131;28;20083;-87
2022/12/23 07:50:37;;;;;;;14.05;8.65;;;8.40;99.90;;;;;;5040662;28;20064;-88
2022/12/23 07:53:02;;;;;;;33.03;20.25;;;8.40;99.90;;;;;;5048391;28;20021;-88
2022/12/23 07:55:28;;;;;;;9.00;6.95;;;8.40;99.90;;;;;;5053935;28;20031;-88
2022/12/23 07:57:53;;;;;;;12.90;9.05;;;8.40;99.90;;;;;;5051588;28;20033;-87
2022/12/23 08:00:20;;;;;;;15.88;11.50;;;8.40;99.90;;;;;;5047656;28;20037;-88
2022/12/23 08:02:47;;;;;;;9.48;6.70;;;8.40;99.90;;;;;;5040766;28;20036;-88
2022/12/23 08:05:13;;;;;;;15.68;9.07;;;8.40;99.90;;;;;;5047206;28;20065;-88
2022/12/23 08:07:39;;;;;;;13.40;9.40;;;8.50;99.90;;;;;;5051986;28;20047;-88
2022/12/23 08:10:06;;;;;;;11.20;7.43;;;8.40;99.90;;;;;;5047606;28;20025;-88
2022/12/23 08:12:32;;;;;;;13.00;8.85;;;8.50;99.90;;;;;;5043267;28;20040;-88
2022/12/23 08:14:57;;;;;;;9.05;6.82;;;8.50;99.90;;;;;;5032561;28;20158;-87
2022/12/23 08:17:28;;;;;;;6.68;5.22;;;8.50;99.90;;;;;;5047725;28;20061;-87
2022/12/23 08:19:54;;;;;;;7.70;5.70;;;8.60;99.90;;;;;;5062544;28;20033;-87
2022/12/23 08:22:19;;;;;;;8.48;5.70;;;8.60;99.90;;;;;;5051866;28;20083;-87
2022/12/23 08:24:45;;;;;;;8.25;6.18;;;8.60;99.90;;;;;;5049178;28;20039;-87
2022/12/23 08:27:11;;;;;;;14.23;10.57;;;8.70;99.90;;;;;;5046205;28;20538;-87
2022/12/23 08:29:39;;;;;;;10.35;7.18;;;8.70;99.90;;;;;;5048906;28;20025;-87
2022/12/23 08:32:05;;;;;;;21.50;10.50;;;8.70;99.90;;;;;;5048069;28;20030;-88
2022/12/23 08:34:31;;;;;;;22.10;12.10;;;8.80;99.90;;;;;;5048639;28;20442;-87
2022/12/23 08:36:57;;;;;;;12.23;7.22;;;8.80;99.90;;;;;;5047977;28;20116;-87
2022/12/23 08:39:23;;;;;;;12.07;7.45;;;8.80;99.90;;;;;;5034659;28;20565;-86
2022/12/23 08:41:48;;;;;;;6.63;4.93;;;8.80;99.90;;;;;;5047607;28;20056;-87
2022/12/23 08:44:15;;;;;;;11.45;6.43;;;8.80;99.90;;;;;;5049465;28;20460;-87
2022/12/23 08:46:41;;;;;;;26.95;12.13;;;8.80;99.90;;;;;;5019728;28;20915;-87
2022/12/23 08:49:07;;;;;;;3.78;3.00;;;8.80;99.90;;;;;;5042161;28;20460;-87
2022/12/23 08:51:35;;;;;;;10.43;6.20;;;8.80;99.90;;;;;;5050273;28;20383;-87
2022/12/23 08:54:01;;;;;;;9.70;7.15;;;8.80;99.90;;;;;;5043191;28;20400;-87
2022/12/23 08:56:29;;;;;;;11.00;6.88;;;8.90;99.90;;;;;;5048199;28;20044;-87
2022/12/23 08:58:56;;;;;;;21.27;12.00;;;8.80;99.90;;;;;;5053167;28;20059;-87
2022/12/23 09:01:24;;;;;;;5.88;3.65;;;8.90;99.90;;;;;;5050337;28;20037;-87
2022/12/23 09:03:51;;;;;;;5.40;3.97;;;8.90;99.90;;;;;;5043636;28;20076;-87
2022/12/23 09:06:30;;;;;;;9.07;5.65;;;8.90;99.90;;;;;;5047876;28;20127;-88
2022/12/23 09:09:37;;;;;;;8.73;6.22;;;8.80;99.90;;;;;;5025931;28;20040;-87
2022/12/23 09:12:03;;;;;;;11.60;5.53;;;8.80;99.90;;;;;;5045027;28;20065;-87
2022/12/23 09:14:29;;;;;;;8.80;4.57;;;8.80;99.90;;;;;;5053072;28;20102;-88
2022/12/23 09:16:54;;;;;;;6.20;4.35;;;8.80;99.90;;;;;;5049680;28;20045;-87
2022/12/23 09:19:20;;;;;;;4.82;3.58;;;8.80;99.90;;;;;;5052392;28;20037;-87
2022/12/23 09:21:46;;;;;;;9.18;5.00;;;8.80;99.90;;;;;;5047861;28;20051;-87
2022/12/23 09:24:17;;;;;;;6.03;4.00;;;8.80;99.90;;;;;;5050451;28;20415;-87
2022/12/23 09:26:43;;;;;;;7.57;4.75;;;8.80;99.90;;;;;;5034477;28;20078;-87
2022/12/23 09:29:08;;;;;;;7.43;5.05;;;8.80;99.90;;;;;;5051677;28;20021;-87
2022/12/23 09:31:34;;;;;;;9.30;4.78;;;8.80;99.90;;;;;;5046003;28;20527;-87
2022/12/23 09:34:01;;;;;;;11.10;8.52;;;8.80;99.90;;;;;;5054001;28;20037;-88
2022/12/23 09:36:26;;;;;;;10.27;6.97;;;8.80;99.90;;;;;;5043086;28;20452;-88
2022/12/23 09:38:54;;;;;;;8.55;5.25;;;8.70;99.90;;;;;;5048436;28;20056;-87
2022/12/23 09:41:51;;;;;;;9.15;5.53;;;8.70;99.90;;;;;;5068807;28;20029;-87
2022/12/23 09:44:29;;;;;;;26.33;18.17;;;8.80;99.90;;;;;;5037558;28;20032;-88
2022/12/23 09:46:59;;;;;;;17.02;11.23;;;8.80;99.90;;;;;;5059425;28;20029;-87
2022/12/23 09:49:25;;;;;;;6.03;4.68;;;8.80;99.90;;;;;;5050645;28;20041;-87
2022/12/23 09:51:55;;;;;;;9.02;6.03;;;8.80;99.90;;;;;;5075229;28;20658;-87
2022/12/23 09:54:23;;;;;;;9.50;5.78;;;8.80;99.90;;;;;;5058329;28;20546;-87
2022/12/23 09:57:01;;;;;;;10.07;5.72;;;8.90;99.90;;;;;;5054512;28;20460;-88
2022/12/23 09:59:40;;;;;;;7.43;5.75;;;8.90;99.90;;;;;;5057896;28;20045;-87
2022/12/23 10:02:45;;;;;;;9.38;6.18;;;9.10;99.90;;;;;;5070975;28;20037;-87
2022/12/23 10:05:48;;;;;;;8.30;6.20;;;9.10;99.90;;;;;;5049878;28;20029;-87
2022/12/23 10:08:34;;;;;;;11.00;8.18;;;9.10;99.90;;;;;;5038336;28;20060;-88
2022/12/23 10:11:06;;;;;;;14.18;6.75;;;9.20;99.90;;;;;;5054265;28;20443;-87
2022/12/23 10:13:47;;;;;;;12.38;7.60;;;9.20;99.90;;;;;;5060596;28;20033;-88
2022/12/23 10:16:24;;;;;;;13.73;7.68;;;9.20;99.90;;;;;;5054508;28;20033;-87
2022/12/23 10:19:05;;;;;;;7.45;5.82;;;9.20;99.90;;;;;;5056653;28;20037;-87
2022/12/23 10:21:45;;;;;;;7.90;5.78;;;9.30;99.90;;;;;;5054492;28;20124;-87
2022/12/23 10:24:24;;;;;;;9.90;6.25;;;9.40;99.90;;;;;;5037304;28;20033;-88
2022/12/23 10:26:59;;;;;;;8.88;6.13;;;9.50;99.90;;;;;;5052879;28;20119;-87
2022/12/23 10:29:30;;;;;;;10.07;6.20;;;9.50;99.90;;;;;;5053200;28;20496;-87
2022/12/23 10:32:14;;;;;;;10.30;5.30;;;9.50;99.90;;;;;;5053797;28;20029;-88
2022/12/23 10:34:58;;;;;;;7.07;4.47;;;9.60;99.90;;;;;;5070377;28;20074;-87
2022/12/23 10:37:40;;;;;;;12.55;5.90;;;9.50;99.90;;;;;;5053881;28;20037;-87
2022/12/23 10:40:27;;;;;;;11.30;6.65;;;9.50;99.90;;;;;;5049780;28;20115;-87
2022/12/23 10:43:24;;;;;;;13.73;8.23;;;9.40;99.90;;;;;;5053278;28;20029;-87
2022/12/23 10:45:50;;;;;;;7.95;5.50;;;9.50;99.90;;;;;;5040672;28;20119;-87
2022/12/23 10:48:37;;;;;;;11.52;6.13;;;9.40;99.90;;;;;;5034810;28;20483;-86
2022/12/23 10:51:03;;;;;;;11.88;6.32;;;9.30;99.90;;;;;;5069324;28;20021;-87
2022/12/23 10:53:40;;;;;;;12.07;8.30;;;9.30;99.90;;;;;;5053743;28;20033;-87
2022/12/23 10:56:07;;;;;;;9.25;6.75;;;9.20;99.90;;;;;;5050567;28;20127;-87
2022/12/23 10:58:37;;;;;;;10.15;8.00;;;9.20;99.90;;;;;;5053719;28;20542;-88
2022/12/23 11:01:06;;;;;;;8.85;6.65;;;9.20;99.90;;;;;;5051488;28;20052;-88
2022/12/23 11:03:46;;;;;;;11.65;7.43;;;9.20;99.90;;;;;;5055924;28;20029;-87
2022/12/23 11:06:12;;;;;;;23.83;12.57;;;9.20;99.90;;;;;;5028175;28;20025;-87
2022/12/23 11:08:39;;;;;;;22.20;10.85;;;9.20;99.90;;;;;;5032855;28;20112;-87
2022/12/23 11:11:06;;;;;;;11.40;6.82;;;9.10;99.90;;;;;;5040916;28;20052;-87
2022/12/23 11:13:39;;;;;;;9.27;5.90;;;9.10;99.90;;;;;;5037898;28;20025;-87
2022/12/23 11:16:13;;;;;;;21.92;6.82;;;9.10;99.90;;;;;;5038079;28;20044;-88
2022/12/23 11:18:51;;;;;;;18.90;8.30;;;9.10;99.90;;;;;;5049181;28;21066;-87
2022/12/23 11:21:17;;;;;;;15.10;8.85;;;9.10;99.90;;;;;;5021406;28;20156;-87
2022/12/23 11:23:43;;;;;;;11.05;6.93;;;9.10;99.90;;;;;;5052737;28;20051;-87
2022/12/23 11:26:12;;;;;;;6.47;4.85;;;9.20;99.90;;;;;;5030667;28;20029;-87
2022/12/23 11:28:46;;;;;;;6.57;4.35;;;9.20;99.90;;;;;;5046825;28;20481;-87
2022/12/23 11:31:14;;;;;;;7.03;4.80;;;9.10;99.90;;;;;;5041766;28;20037;-88
2022/12/23 11:33:44;;;;;;;6.65;3.70;;;9.20;99.90;;;;;;5035517;28;20029;-87
2022/12/23 11:36:18;;;;;;;7.05;4.38;;;9.20;99.90;;;;;;5024675;28;20049;-88
2022/12/23 11:39:00;;;;;;;4.95;3.63;;;9.20;99.90;;;;;;5046053;28;20768;-88
2022/12/23 11:41:28;;;;;;;7.22;4.07;;;9.20;99.90;;;;;;5049212;28;20025;-88
2022/12/23 11:43:59;;;;;;;4.70;3.55;;;9.20;99.90;;;;;;5024524;28;20068;-88
2022/12/23 11:46:50;;;;;;;6.07;3.15;;;9.20;99.90;;;;;;5051736;28;20036;-88
2022/12/23 11:49:29;;;;;;;5.33;2.30;;;9.20;99.90;;;;;;5047670;28;20082;-88
2022/12/23 11:52:03;;;;;;;3.75;2.90;;;9.30;99.90;;;;;;5069069;28;20029;-88
2022/12/23 11:54:30;;;;;;;6.60;3.53;;;9.30;99.90;;;;;;5052698;28;20033;-88
2022/12/23 11:57:07;;;;;;;6.97;3.00;;;9.30;99.90;;;;;;5150100;27;20500;-88
2022/12/23 11:59:37;;;;;;;4.70;3.63;;;9.30;99.90;;;;;;5063371;28;20054;-88
2022/12/23 12:02:12;;;;;;;71.22;5.47;;;9.30;99.90;;;;;;5089517;28;20111;-88
2022/12/23 12:04:39;;;;;;;95.30;6.78;;;9.40;99.90;;;;;;5083170;28;20030;-88
2022/12/23 12:07:10;;;;;;;50.58;5.38;;;9.30;99.90;;;;;;5094460;28;20036;-89
2022/12/23 12:09:42;;;;;;;85.10;5.93;;;9.30;99.90;;;;;;5070148;28;20042;-87
2022/12/23 12:12:15;;;;;;;133.23;9.18;;;9.30;99.90;;;;;;5107526;28;20685;-88
2022/12/23 12:14:44;;;;;;;80.38;8.52;;;9.20;99.90;;;;;;5073551;28;20066;-88
2022/12/23 12:17:21;;;;;;;287.55;18.25;;;9.20;99.90;;;;;;5080395;28;20096;-88
2022/12/23 12:19:55;;;;;;;126.90;13.95;;;9.20;99.90;;;;;;5059888;28;20475;-89
2022/12/23 12:22:50;;;;;;;240.43;16.10;;;9.20;99.90;;;;;;5065044;28;20028;-88
2022/12/23 12:25:33;;;;;;;206.00;18.15;;;9.20;99.90;;;;;;5079995;28;20127;-88
2022/12/23 12:28:03;;;;;;;443.55;22.42;;;9.20;99.90;;;;;;5071399;28;20034;-88
2022/12/23 12:30:36;;;;;;;299.73;18.25;;;9.20;99.90;;;;;;5086366;28;21164;-88
2022/12/23 12:33:14;;;;;;;496.50;25.13;;;9.20;99.90;;;;;;5104931;28;20123;-88
2022/12/23 12:35:45;;;;;;;73.20;9.65;;;9.30;99.90;;;;;;5058620;28;20440;-87
2022/12/23 12:38:24;;;;;;;;;;;9.30;99.90;;;;;;5067366;28;20079;-87
2022/12/23 12:41:06;;;;;;;121.07;13.52;;;9.30;99.90;;;;;;5069250;28;19928;-87
2022/12/23 12:43:42;;;;;;;31.15;9.82;;;9.40;99.90;;;;;;5078459;28;20448;-88
2022/12/23 12:46:27;;;;;;;40.95;10.38;;;9.40;99.90;;;;;;5076091;28;20384;-88
2022/12/23 12:49:20;;;;;;;23.10;8.93;;;9.40;99.90;;;;;;5090059;28;20027;-87
2022/12/23 12:52:11;;;;;;;11.88;6.85;;;9.40;99.90;;;;;;5020149;28;20033;-87
2022/12/23 12:54:47;;;;;;;12.80;6.00;;;9.50;99.90;;;;;;5093932;28;20166;-87
2022/12/23 12:57:19;;;;;;;13.68;7.32;;;9.60;99.90;;;;;;5041391;28;20058;-88
2022/12/23 12:59:48;;;;;;;21.40;9.43;;;9.60;99.90;;;;;;5051894;28;20222;-87
2022/12/23 13:02:37;;;;;;;11.15;6.57;;;9.60;99.90;;;;;;5116218;27;20034;-87
2022/12/23 13:05:33;;;;;;;12.95;7.30;;;9.60;99.90;;;;;;5079922;28;20036;-88
2022/12/23 13:08:17;;;;;;;7.40;5.38;;;9.70;99.90;;;;;;5068226;28;20398;-88
2022/12/23 13:10:58;;;;;;;14.13;7.10;;;9.70;99.90;;;;;;5028612;28;20020;-87
2022/12/23 13:14:04;;;;;;;43.65;6.53;;;9.70;99.90;;;;;;5053508;28;20390;-87
2022/12/23 13:16:35;;;;;;;17.23;6.32;;;9.70;99.90;;;;;;5050955;28;20454;-88
2022/12/23 13:19:22;;;;;;;67.20;7.38;;;9.70;99.90;;;;;;5062451;28;20084;-87
2022/12/23 13:22:03;;;;;;;31.30;7.88;;;9.70;99.90;;;;;;5027682;28;20023;-87
2022/12/23 13:24:47;;;;;;;145.15;14.30;;;9.70;99.90;;;;;;5091834;28;20693;-88
2022/12/23 13:27:32;;;;;;;14.65;7.55;;;9.70;99.90;;;;;;5011384;28;20022;-87
2022/12/23 13:30:10;;;;;;;52.85;10.27;;;9.70;99.90;;;;;;5002235;28;20018;-87
2022/12/23 13:32:58;;;;;;;11.75;6.93;;;9.70;99.90;;;;;;5010350;28;20026;-87
2022/12/23 13:35:34;;;;;;;10.82;5.50;;;9.70;99.90;;;;;;5010635;28;20034;-87
2022/12/23 13:38:35;;;;;;;15.90;7.50;;;9.70;99.90;;;;;;5048421;28;20466;-87
2022/12/23 13:41:25;;;;;;;5.33;3.83;;;9.70;99.90;;;;;;5030698;28;20035;-87
2022/12/23 13:44:11;;;;;;;15.45;6.85;;;9.70;99.90;;;;;;5020302;28;20028;-87
2022/12/23 13:46:56;;;;;;;18.95;9.88;;;9.70;99.90;;;;;;5073632;28;20072;-87